2022年7月4日

时间 代码 天气 温度 能见度 天花板 METAR/SPECI
5:00 下午
V
64 °F 30 mi 6.700 ft Var Var 2 kt METAR CYVR 050000Z VRB02KT 30SM FEW020 FEW027 SCT065 BKN067 OVC100 18/12 A2998 RMK CU1SC1SC1AC3AC2 SLP156 DENSITY ALT 300FT
4:00 下午
V
63 °F 30 mi 7.000 ft 160° 160° 5 kt METAR CYVR 042300Z 16005KT 110V180 30SM FEW030 BKN070 OVC120 17/13 A2998 RMK SC3AS3AC2 CU EMBEDED SLP155 DENSITY ALT 200FT
3:00 下午
V
61 °F 20 mi 3.300 ft 160° 160° 7 kt METAR CYVR 042200Z 16007KT 20SM SCT021 BKN033 OVC100 16/13 A2998 RMK SC3SC3AC2 SLP153 DENSITY ALT 200FT
2:00 下午
M
61 °F 20 mi 2.300 ft 130° 130° 9 kt METAR CYVR 042100Z 13009KT 20SM SCT020 BKN023 OVC100 16/13 A2998 RMK SC3SC3AC2 SLP153 DENSITY ALT 100FT
1:00 下午
M
61 °F 15 mi 2.500 ft 100° 100° 9 kt METAR CYVR 042000Z 10009KT 15SM SCT015 BKN025 BKN030 OVC100 16/13 A2997 RMK SC4SC2SC1AC1 CU EMBEDED SLP150 DENSITY ALT 100FT
12:00 下午
M
59 °F 15 mi 1.500 ft 130° 130° 8 kt METAR CYVR 041900Z 13008KT 15SM SCT013 BKN015 OVC047 15/14 A2996 RMK ST3SC3SC2 SLP149
11:29 上午
V
59 °F 15 mi 3.600 ft 110° 110° 10 kt METAR CYVR 041829Z 11010KT 15SM -DZ SCT010 SCT024 BKN036 OVC060 15/14 A2996 RMK ST3SC1SC2SC2 SLP148
11:00 上午
I
57 °F 15 mi 900 ft 110° 110° 10 kt METAR CYVR 041800Z 11010KT 15SM BKN009 BKN030 OVC050 14/14 A2996 RMK ST5SC2SC1 SLP147
10:00 上午
I
57 °F 10 mi 800 ft 110° 110° 9 - 15 kt METAR CYVR 041700Z 11009G15KT 10SM BKN008 BKN030 OVC054 14/14 A2996 RMK ST5SC2SC1 SLP147
9:47 上午
I
57 °F 10 mi 900 ft 130° 130° 10 - 15 kt METAR CYVR 041647Z 13010G15KT 10SM BKN009 BKN033 OVC056 14/14 A2996 RMK ST5SC2SC1 SLP147
9:00 上午
M
57 °F 10 mi 1.000 ft 100° 100° 10 kt METAR CYVR 041600Z 10010KT 10SM -DZ BR SCT004 SCT006 BKN010 OVC020 14/14 A2995 RMK ST3ST1SC2SC2 SLP145
8:38 上午
I
57 °F 4 mi 600 ft 100° 100° 8 kt METAR CYVR 041538Z 10008KT 4SM -DZ BR SCT003 BKN006 BKN012 OVC027 14/14 A2995 RMK ST3ST2SC2SC1 SLP144
8:21 上午
M
55 °F 6 mi 1.200 ft 100° 100° 9 kt METAR CYVR 041521Z 10009KT 6SM BR FEW003 SCT005 BKN012 OVC025 13/13 A2995 RMK ST2ST2SC3SC1 SLP144
8:00 上午
M
55 °F 4 mi 1.200 ft 100° 100° 8 kt METAR CYVR 041500Z 10008KT 4SM -DZ BR SCT007 BKN012 OVC020 13/13 A2995 RMK ST4SC3SC1 SLP143
7:00 上午
M
55 °F 15 mi 1.900 ft 100° 100° 10 kt METAR CYVR 041400Z 10010KT 15SM -DZ SCT010 BKN019 OVC030 13/13 A2994 RMK ST3SC3SC2 SLP141
6:25 上午
M
55 °F 15 mi 1.200 ft 100° 100° 10 kt METAR CYVR 041325Z 10010KT 15SM -DZ SCT010 BKN012 OVC018 13/13 A2994 RMK ST3SC4SC1 SLP141
6:00 上午
V
55 °F 10 mi 3.800 ft 100° 100° 10 kt METAR CYVR 041300Z 10010KT 10SM FEW008 BKN038 OVC050 13/13 A2993 RMK SC1SC7SC1 SC TR SLP139
5:39 上午
V
55 °F 10 mi 3.400 ft 100° 100° 8 kt METAR CYVR 041239Z 10008KT 10SM FEW008 BKN034 OVC045 13/13 A2993 RMK SC1SC6SC1 SLP139
5:00 上午
V
55 °F 8 mi 5.100 ft 080° 080° 9 kt METAR CYVR 041200Z 08009KT 8SM FEW032 OVC051 13/13 A2993 RMK SC2SC6 SLP136
4:00 上午
V
55 °F 15 mi 3.300 ft 090° 090° 10 kt METAR CYVR 041100Z 09010KT 15SM -RA FEW013 OVC033 13/13 A2993 RMK SC2SC6 SLP136
3:00 上午
M
55 °F 8 mi 1.300 ft 100° 100° 7 kt METAR CYVR 041000Z 10007KT 8SM -RA BKN013 OVC027 13/13 A2993 RMK SC7SC1 SLP136
2:32 上午
M
55 °F 6 mi 1.200 ft 110° 110° 9 kt METAR CYVR 040932Z 11009KT 6SM -RA BR BKN012 OVC028 13/13 A2993 RMK SC6SC2 SLP136
2:00 上午
M
55 °F 4 mi 2.600 ft 110° 110° 10 kt METAR CYVR 040900Z 11010KT 4SM -RA BR FEW013 OVC026 13/13 A2993 RMK SC2SC6 CU ASOCTD SLP136
1:15 上午
I
55 °F 3 mi 2.300 ft 110° 110° 9 kt METAR CYVR 040815Z 11009KT 3SM -RA BR SCT006 OVC023 13/13 A2993 RMK SC4SC4 SLP136
1:00 上午
I
55 °F 3 mi 600 ft 110° 110° 8 kt METAR CYVR 040800Z 11008KT 3SM -RA BR BKN006 OVC028 13/13 A2993 RMK SC5SC3 SLP136
12:21 上午
I
55 °F 3 mi 700 ft 120° 120° 9 kt METAR CYVR 040721Z 12009KT 3SM -RA BR FEW004 BKN007 OVC022 13/13 A2993 RMK SF1SC5SC2 SLP137
12:00 上午
I
55 °F 2½ mi 600 ft 110° 110° 11 kt METAR CYVR 040700Z 11011KT 2 1/2SM -RA BR FEW004 BKN006 OVC022 13/13 A2993 RMK SF1SC4SC3 SLP137

2022年7月3日

时间 代码 天气 温度 能见度 天花板 METAR/SPECI
11:00 下午
I
55 °F 2¼ mi 500 ft 100° 100° 9 kt METAR CYVR 040600Z 10009KT 2 1/4SM -RA BR SCT004 BKN005 OVC016 13/13 A2993 RMK SF3SC4SC1 SLP136
10:00 下午
I
55 °F 2¼ mi 500 ft 100° 100° 9 kt METAR CYVR 040500Z 10009KT 2 1/4SM -RA BR SCT004 OVC005 13/13 A2993 RMK SF3SC5 SLP136
9:08 下午
I
55 °F 2½ mi 500 ft 100° 100° 12 kt METAR CYVR 040408Z 10012KT 2 1/2SM -RA BR FEW004 BKN005 OVC025 13/13 A2993 RMK SF2SC5SC1 SLP136
9:00 下午
I
55 °F 3 mi 600 ft 100° 100° 11 kt METAR CYVR 040400Z 10011KT 3SM -RA BR SCT004 BKN006 OVC026 13/13 A2992 RMK ST3SC4SC1 SLP135
8:00 下午
I
55 °F 3 mi 600 ft 100° 100° 10 kt METAR CYVR 040300Z 10010KT 3SM -RA BR SCT004 BKN006 OVC030 13/13 A2992 RMK SF3SC3SC2 SLP135
7:51 下午
I
55 °F 3 mi 600 ft 100° 100° 10 kt METAR CYVR 040251Z 10010KT 3SM -RA BR SCT004 BKN006 OVC030 13/13 A2992 RMK SF3SC3SC2 SLP134
7:23 下午
I
55 °F 3 mi 600 ft 110° 110° 11 kt METAR CYVR 040223Z 11011KT 3SM BR BKN006 OVC028 13/13 A2992 RMK SC7SC1 SLP133
7:00 下午
V
55 °F 6 mi 3.000 ft 120° 120° 11 kt METAR CYVR 040200Z 12011KT 6SM BR SCT006 OVC030 13/13 A2991 RMK SC4SC4 SLP132
6:35 下午
I
55 °F 3 mi 1.200 ft 120° 120° 9 kt METAR CYVR 040135Z 12009KT 3SM BR FEW006 BKN012 OVC022 13/13 A2992 RMK SF2ST3SC3 SLP133
6:00 下午
I
55 °F 3 mi 600 ft 120° 120° 11 kt METAR CYVR 040100Z 12011KT 3SM -DZ BR BKN006 OVC011 13/13 A2991 RMK ST6SC2 SLP132
5:00 下午
I
57 °F 6 mi 900 ft 120° 120° 11 kt METAR CYVR 040000Z 12011KT 6SM -DZ BR SCT006 BKN009 OVC011 14/14 A2991 RMK ST3ST4SC1 SLP131
4:00 下午
I
57 °F 6 mi 500 ft 110° 110° 11 kt METAR CYVR 032300Z 11011KT 6SM -DZ BR BKN005 OVC018 14/14 A2992 RMK ST6SC2 SLP133
3:00 下午
I
57 °F 15 mi 800 ft 140° 140° 11 kt METAR CYVR 032200Z 14011KT 15SM -DZ SCT006 BKN008 OVC010 14/14 A2991 RMK ST4ST2SC2 SLP132
2:00 下午
I
57 °F 10 mi 800 ft 130° 130° 8 kt METAR CYVR 032100Z 13008KT 10SM -RA FEW006 BKN008 OVC011 14/14 A2991 RMK ST2ST3SC3 SLP131
1:00 下午
M
57 °F 8 mi 1.100 ft 120° 120° 10 kt METAR CYVR 032000Z 12010KT 8SM -RA SCT006 OVC011 14/14 A2990 RMK ST4SC4 SLP129
12:00 下午
I
57 °F 8 mi 900 ft 110° 110° 7 kt METAR CYVR 031900Z 11007KT 8SM -SHRA SCT005 SCT006 BKN009 BKN011 OVC019 14/14 A2990 RMK ST3ST1ST1SC2SC1 SLP128
11:00 上午
I
57 °F 10 mi 500 ft 090° 090° 10 kt METAR CYVR 031800Z 09010KT 10SM -RA BKN005 OVC018 14/14 A2990 RMK ST6SC2 SLP127
10:15 上午
I
55 °F 10 mi 500 ft 120° 120° 8 kt METAR CYVR 031715Z 12008KT 10SM -RA BKN005 OVC033 13/13 A2989 RMK ST5SC3 SLP125
10:00 上午
V
55 °F 10 mi 4.600 ft 110° 110° 9 kt METAR CYVR 031700Z 11009KT 10SM RA SCT005 OVC046 13/13 A2989 RMK ST4NS4 SLP124
9:15 上午
M
55 °F 10 mi 1.800 ft 110° 110° 12 kt METAR CYVR 031615Z 11012KT 10SM RA FEW005 FEW007 OVC018 13/13 A2989 RMK SF2SF1NS6 SF TR SLP125
9:00 上午
V
55 °F 15 mi 3.800 ft 100° 100° 12 kt METAR CYVR 031600Z 10012KT 15SM -RA FEW010 OVC038 13/13 A2989 RMK SF2SC6 SLP124
8:00 上午
V
57 °F 20 mi 3.800 ft 120° 120° 11 kt METAR CYVR 031500Z 12011KT 20SM -RA FEW016 BKN038 OVC042 14/13 A2988 RMK SC2SC4SC2 SLP122
7:00 上午
V
59 °F 25 mi 3.800 ft 090° 090° 7 kt METAR CYVR 031400Z 09007KT 25SM -RA FEW025 BKN038 BKN058 OVC100 15/13 A2987 RMK SC1SC5SC2AC1 SC TR SLP118 DENSITY ALT 100FT
6:00 上午
V
59 °F 15 mi 6.000 ft 110° 110° 9 kt METAR CYVR 031300Z 11009KT 15SM FEW035 BKN060 BKN140 OVC190 15/13 A2987 RMK SC1SC5AC1AS2 SC TR SLP119 DENSITY ALT 100FT
5:00 上午
V
57 °F 15 mi 14.000 ft 100° 100° 9 kt METAR CYVR 031200Z 10009KT 15SM FEW035 FEW055 BKN140 BKN190 OVC200 14/12 A2987 RMK SC1SC2AC3AS2CC1 SC TR SLP116
4:00 上午
V
59 °F 15 mi 14.000 ft 100° 100° 8 kt METAR CYVR 031100Z 10008KT 15SM FEW063 SCT120 BKN140 BKN210 15/12 A2986 RMK SC2AC1AC2CC1 SLP114 DENSITY ALT 100FT
3:00 上午
V
59 °F 15 mi 13.000 ft 090° 090° 10 kt METAR CYVR 031000Z 09010KT 15SM FEW063 SCT100 BKN130 BKN210 15/13 A2986 RMK SC2AC1AC2CC2 SLP114 DENSITY ALT 200FT
2:00 上午
V
59 °F 15 mi 21.000 ft 090° 090° 12 kt METAR CYVR 030900Z 09012KT 15SM FEW062 FEW180 SCT190 BKN210 15/12 A2986 RMK SC1AC1AC1CC3 SLP114 DENSITY ALT 200FT
1:00 上午
V
61 °F 15 mi 21.000 ft 100° 100° 13 kt METAR CYVR 030800Z 10013KT 15SM FEW060 FEW190 SCT200 BKN210 16/12 A2987 RMK SC1AC2CC1CI2 SC TR SLP117 DENSITY ALT 200FT
12:00 上午
V
59 °F 15 mi - 100° 100° 12 kt METAR CYVR 030700Z 10012KT 15SM FEW060 FEW190 SCT200 SCT210 15/13 A2986 RMK SC1AC2CC1CI1 SC TR SLP113 DENSITY ALT 100FT

2022年7月2日

时间 代码 天气 温度 能见度 天花板 METAR/SPECI
11:00 下午
V
61 °F 15 mi - 110° 110° 9 kt METAR CYVR 030600Z 11009KT 15SM FEW060 FEW190 SCT200 SCT210 16/13 A2985 RMK SC1AC2CC2CI1 SC TR CI TR SLP112 DENSITY ALT 200FT
10:00 下午
V
61 °F 15 mi - 100° 100° 12 kt METAR CYVR 030500Z 10012KT 15SM FEW058 FEW170 SCT200 SCT210 16/13 A2986 RMK SC1AS1CC3CI1 AS TR CI TR CU ASOCTD E SLP113 DENSITY ALT 300FT
9:00 下午
V
64 °F 25 mi 20.000 ft 090° 090° 8 kt METAR CYVR 030400Z 09008KT 25SM FEW055 FEW170 BKN200 BKN210 18/13 A2984 RMK SC1AS1CC4CI1 AS TR CI TR CU EMBD NE-SE SLP107 DENSITY ALT 500FT
8:00 下午
V
68 °F 25 mi 22.000 ft 130° 130° 8 kt METAR CYVR 030300Z 13008KT 25SM FEW050 FEW170 SCT210 BKN220 20/14 A2983 RMK SC1AS1CC3CI1 SC TR TCU EMBD NE-SE SLP105 DENSITY ALT 700FT
7:00 下午
V
68 °F 25 mi 22.000 ft 160° 160° 9 kt METAR CYVR 030200Z 16009KT 25SM FEW055 FEW170 SCT200 BKN220 20/13 A2983 RMK SC1AS2CS1CI2 SC TR TCU EMBD E SLP104 DENSITY ALT 800FT
6:00 下午
V
68 °F 25 mi 22.000 ft 180° 180° 5 kt METAR CYVR 030100Z 18005KT 25SM SCT170 SCT200 BKN220 BKN240 20/13 A2984 RMK AS3CC1CS2CI2 CC TR SLP107 DENSITY ALT 700FT
5:00 下午
V
66 °F 25 mi 19.000 ft 200° 200° 7 kt METAR CYVR 030000Z 20007KT 180V240 25SM BKN190 BKN240 19/15 A2985 RMK AS5CI2 SLP111 DENSITY ALT 600FT
4:00 下午
V
66 °F 25 mi 18.000 ft 220° 220° 6 kt METAR CYVR 022300Z 22006KT 25SM BKN180 BKN200 19/16 A2987 RMK AS5CS2 SLP118 DENSITY ALT 600FT
3:00 下午
V
68 °F 25 mi 21.000 ft 210° 210° 6 kt METAR CYVR 022200Z 21006KT 190V250 25SM SCT180 BKN210 BKN240 20/15 A2989 RMK AS4CS2CI1 SLP124 DENSITY ALT 600FT
2:00 下午
V
66 °F 25 mi 20.000 ft 240° 240° 6 kt METAR CYVR 022100Z 24006KT 200V280 25SM SCT180 BKN200 BKN240 19/15 A2991 RMK AS3CS2CI2 SLP132 DENSITY ALT 500FT
1:00 下午
V
66 °F 25 mi 23.000 ft 230° 230° 5 kt METAR CYVR 022000Z 23005KT 190V290 25SM SCT200 BKN230 19/13 A2993 RMK CS4CI3 SLP136 DENSITY ALT 500FT
12:00 下午
V
63 °F 25 mi 24.000 ft 230° 230° 8 kt METAR CYVR 021900Z 23008KT 25SM BKN240 17/13 A2994 RMK CI6 SLP141 DENSITY ALT 300FT
11:00 上午
V
66 °F 25 mi 24.000 ft 140° 140° 6 kt METAR CYVR 021800Z 14006KT 25SM BKN240 19/13 A2996 RMK CI7 SLP147 DENSITY ALT 400FT
10:00 上午
V
64 °F 25 mi - 170° 170° 6 kt METAR CYVR 021700Z 17006KT 100V180 25SM SCT240 18/13 A2996 RMK CI3 SLP149 DENSITY ALT 400FT
9:00 上午
V
63 °F 25 mi - 150° 150° 4 kt METAR CYVR 021600Z 15004KT 100V180 25SM SCT240 17/13 A2997 RMK CI3 SLP152 DENSITY ALT 200FT
8:00 上午
V
61 °F 25 mi - 100° 100° 7 kt METAR CYVR 021500Z 10007KT 25SM FEW240 16/13 A2998 RMK CI1 SLP155 DENSITY ALT 100FT
较旧的数据

下载我们的应用程序

在您的手机和平板电脑上轻松访问所有航空天气。
有许多网站上没有的功能,如离线支持和个人机场列表。

Studio Eveline

Benalmádena
España

我们和第三方通过cookies跟踪您在我们网站上的上网行为。如果您继续,我们认为您同意我们的cookie政策。 了解更多